Schedule Details

Flight Number: CPX429
Departure: Portland International Jetport (KPWM) at N/A
Arrival: Washington Dulles International Airport (KIAD) at N/A
Route: NUBLE3 BAF HYPER7


Current Weather Information
KPWM 180451Z 11009G16KT 020V140 10SM SCT120 M03/M07 A3004 RMK AO2 SLP175 LAST T10331067 400001100
KIAD 180452Z 28016G22KT 9SM -RA BKN008 BKN050 OVC080 02/01 A2990 RMK AO2 PRESRR SLP127 P0005 T00170006 400391050

Route Map